createdAt,value
2019-02-24T00:02:24.660Z,11.10
2019-02-24T00:04:58.274Z,14.43
2019-02-24T00:07:31.895Z,10.43
2019-02-24T00:10:06.125Z,11.83
2019-02-24T00:12:42.871Z,12.10
2019-02-24T00:15:16.520Z,11.47
2019-02-24T00:17:50.140Z,9.70
2019-02-24T00:20:27.572Z,11.20
2019-02-24T00:23:01.322Z,11.17
2019-02-24T00:25:47.245Z,13.60
2019-02-24T00:28:21.161Z,12.10
2019-02-24T00:30:54.806Z,11.03
2019-02-24T00:33:31.418Z,11.83
2019-02-24T00:36:05.174Z,11.13
2019-02-24T00:38:38.820Z,11.07
2019-02-24T00:41:12.502Z,15.00
2019-02-24T00:43:46.089Z,11.37
2019-02-24T00:46:38.024Z,12.10
2019-02-24T00:49:11.617Z,11.40
2019-02-24T00:52:10.656Z,9.97
2019-02-24T00:54:44.240Z,11.37
2019-02-24T00:57:17.865Z,10.33
2019-02-24T00:59:51.479Z,12.97
2019-02-24T01:02:25.132Z,10.93
2019-02-24T01:04:59.432Z,11.47
2019-02-24T01:07:33.094Z,13.07
2019-02-24T01:10:09.149Z,10.80
2019-02-24T01:12:54.888Z,14.30
2019-02-24T01:15:28.644Z,10.83
2019-02-24T01:18:02.234Z,11.63
2019-02-24T01:20:35.847Z,11.73
2019-02-24T01:23:09.508Z,14.07
2019-02-24T01:25:43.208Z,12.87
2019-02-24T01:28:24.892Z,10.80
2019-02-24T01:30:52.140Z,13.20
2019-02-24T01:33:30.855Z,13.67
2019-02-24T01:36:04.511Z,15.40
2019-02-24T01:38:38.126Z,13.47
2019-02-24T01:41:11.775Z,15.57
2019-02-24T01:43:45.433Z,10.37
2019-02-24T01:46:19.323Z,14.40
2019-02-24T01:48:52.950Z,13.83
2019-02-24T01:51:26.641Z,13.80
2019-02-24T01:54:00.239Z,15.07
2019-02-24T01:56:51.908Z,13.37
2019-02-24T01:59:25.596Z,14.07
2019-02-24T02:02:02.308Z,12.13
2019-02-24T02:04:35.990Z,16.70
2019-02-24T02:07:09.647Z,11.87
2019-02-24T02:09:44.324Z,14.03
2019-02-24T02:12:17.989Z,11.63
2019-02-24T02:14:51.980Z,11.13
2019-02-24T02:17:25.558Z,13.63
2019-02-24T02:19:59.174Z,13.63
2019-02-24T02:22:32.908Z,12.53
2019-02-24T02:25:15.863Z,13.97
2019-02-24T02:27:49.458Z,16.53
2019-02-24T02:30:23.416Z,16.03
2019-02-24T02:32:57.104Z,14.37
2019-02-24T02:35:31.130Z,13.50
2019-02-24T02:38:04.819Z,16.10
2019-02-24T02:40:56.615Z,13.63
2019-02-24T02:43:30.307Z,16.70
2019-02-24T02:46:14.108Z,14.20
2019-02-24T02:48:47.715Z,16.03
2019-02-24T02:51:21.374Z,15.67
2019-02-24T02:53:55.019Z,14.00
2019-02-24T02:56:28.734Z,17.40
2019-02-24T02:59:05.572Z,13.60
2019-02-24T03:01:39.154Z,18.70
2019-02-24T03:04:12.864Z,16.13
2019-02-24T03:07:20.275Z,15.23
2019-02-24T03:09:53.899Z,13.33
2019-02-24T03:12:36.988Z,15.60
2019-02-24T03:15:10.746Z,16.73
2019-02-24T03:17:49.043Z,14.50
2019-02-24T03:20:22.740Z,17.70
2019-02-24T03:22:56.618Z,17.13
2019-02-24T03:25:30.332Z,16.57
2019-02-24T03:28:03.929Z,14.27
2019-02-24T03:30:37.608Z,12.63
2019-02-24T03:33:11.271Z,16.60
2019-02-24T03:35:56.707Z,17.07
2019-02-24T03:38:30.287Z,19.67
2019-02-24T03:41:03.975Z,19.67
2019-02-24T03:43:38.584Z,16.00
2019-02-24T03:46:12.199Z,18.37
2019-02-24T03:48:45.827Z,17.37
2019-02-24T03:51:19.409Z,16.83
2019-02-24T03:53:53.288Z,19.43
2019-02-24T03:56:27.991Z,17.40
2019-02-24T03:59:01.670Z,15.07
2019-02-24T04:01:35.408Z,17.20
2019-02-24T04:04:09.177Z,18.40
2019-02-24T04:06:42.766Z,18.70
2019-02-24T04:09:16.437Z,17.53
2019-02-24T04:11:50.159Z,18.13
2019-02-24T04:14:23.784Z,17.87
2019-02-24T04:16:57.401Z,17.03
2019-02-24T04:19:31.033Z,17.03
2019-02-24T04:22:19.775Z,18.40
2019-02-24T04:24:53.440Z,15.77
2019-02-24T04:27:27.070Z,16.93
2019-02-24T04:30:01.041Z,16.70
2019-02-24T04:32:47.175Z,16.43
2019-02-24T04:35:21.119Z,17.03
2019-02-24T04:37:54.707Z,14.57
2019-02-24T04:40:33.493Z,20.03
2019-02-24T04:43:07.160Z,16.97
2019-02-24T04:45:43.793Z,18.50
2019-02-24T04:48:17.505Z,20.47
2019-02-24T04:50:51.087Z,19.43
2019-02-24T04:53:32.638Z,18.87
2019-02-24T04:56:06.262Z,20.77
2019-02-24T04:58:39.893Z,22.60
2019-02-24T05:01:13.565Z,18.43
2019-02-24T05:03:47.198Z,19.83
2019-02-24T05:06:20.813Z,16.53
2019-02-24T05:08:54.704Z,19.77
2019-02-24T05:11:31.436Z,17.40
2019-02-24T05:14:05.106Z,19.27
2019-02-24T05:16:38.857Z,21.83
2019-02-24T05:19:12.493Z,21.27
2019-02-24T05:21:46.105Z,19.67
2019-02-24T05:24:19.705Z,23.20
2019-02-24T05:27:02.413Z,22.10
2019-02-24T05:29:44.731Z,23.43
2019-02-24T05:32:11.288Z,21.57
2019-02-24T05:34:44.953Z,23.17
2019-02-24T05:37:37.209Z,22.60
2019-02-24T05:40:11.196Z,20.53
2019-02-24T05:42:44.886Z,21.63
2019-02-24T05:45:18.515Z,20.93
2019-02-24T05:47:52.177Z,23.20
2019-02-24T05:50:25.771Z,22.13
2019-02-24T05:52:59.523Z,18.73
2019-02-24T05:55:33.521Z,20.40
2019-02-24T05:58:07.164Z,21.93
2019-02-24T06:00:43.803Z,25.73
2019-02-24T06:03:17.495Z,22.27
2019-02-24T06:05:51.198Z,18.70
2019-02-24T06:08:49.062Z,21.27
2019-02-24T06:11:22.681Z,19.73
2019-02-24T06:14:05.415Z,21.03
2019-02-24T06:16:39.036Z,22.10
2019-02-24T06:19:12.723Z,24.90
2019-02-24T06:21:46.349Z,21.73
2019-02-24T06:24:20.012Z,23.40
2019-02-24T06:26:59.811Z,23.40
2019-02-24T06:29:33.414Z,21.47
2019-02-24T06:32:07.175Z,20.43
2019-02-24T06:34:40.796Z,22.83
2019-02-24T06:37:16.508Z,23.27
2019-02-24T06:39:50.503Z,23.60
2019-02-24T06:42:24.120Z,21.40
2019-02-24T06:45:00.752Z,23.33
2019-02-24T06:47:34.370Z,22.23
2019-02-24T06:50:11.587Z,21.07
2019-02-24T06:52:45.211Z,19.23
2019-02-24T06:55:18.870Z,20.73
2019-02-24T06:57:52.502Z,19.73
2019-02-24T07:00:26.156Z,19.70
2019-02-24T07:03:02.819Z,19.73
2019-02-24T07:05:36.376Z,16.00
2019-02-24T07:08:13.080Z,17.83
2019-02-24T07:10:47.039Z,19.67
2019-02-24T07:13:20.744Z,20.93
2019-02-24T07:15:56.361Z,17.07
2019-02-24T07:18:29.945Z,17.93
2019-02-24T07:21:06.870Z,18.10
2019-02-24T07:23:40.888Z,18.23
2019-02-24T07:26:14.510Z,19.50
2019-02-24T07:28:51.641Z,18.13
2019-02-24T07:31:25.210Z,16.67
2019-02-24T07:34:14.513Z,17.55
2019-02-24T07:36:48.717Z,17.35
2019-02-24T07:39:22.980Z,16.97
2019-02-24T07:42:02.268Z,17.20
2019-02-24T07:44:36.522Z,16.82
2019-02-24T07:47:10.740Z,15.35
2019-02-24T07:49:44.926Z,18.70
2019-02-24T07:52:19.166Z,21.10
2019-02-24T07:54:53.452Z,19.32
2019-02-24T07:57:27.699Z,17.10
2019-02-24T08:00:14.039Z,16.42
2019-02-24T08:02:48.517Z,16.05
2019-02-24T08:05:22.763Z,15.43
2019-02-24T08:07:56.990Z,15.23
2019-02-24T08:10:38.533Z,15.18
2019-02-24T08:13:12.776Z,15.65
2019-02-24T08:15:47.963Z,16.25
2019-02-24T08:18:22.184Z,15.00
2019-02-24T08:21:08.444Z,16.65
2019-02-24T08:23:42.659Z,17.75
2019-02-24T08:26:16.844Z,16.85
2019-02-24T08:28:51.998Z,19.45
2019-02-24T08:31:26.174Z,17.23
2019-02-24T08:34:02.351Z,16.00
2019-02-24T08:36:36.537Z,16.75
2019-02-24T08:39:12.799Z,17.35
2019-02-24T08:41:47.011Z,17.73
2019-02-24T08:44:23.539Z,16.70
2019-02-24T08:46:57.824Z,15.53
2019-02-24T08:49:32.163Z,16.50
2019-02-24T08:52:06.386Z,17.80
2019-02-24T08:54:47.612Z,18.85
2019-02-24T08:57:21.832Z,15.83
2019-02-24T08:59:57.187Z,18.80
2019-02-24T09:02:31.448Z,16.55
2019-02-24T09:05:06.394Z,17.48
2019-02-24T09:07:40.587Z,17.30
2019-02-24T09:10:14.870Z,19.30
2019-02-24T09:12:49.054Z,18.12
2019-02-24T09:15:30.767Z,16.48
2019-02-24T09:18:05.020Z,16.37
2019-02-24T09:20:39.303Z,15.20
2019-02-24T09:23:13.477Z,16.85
2019-02-24T09:25:47.771Z,16.52
2019-02-24T09:28:21.963Z,16.05
2019-02-24T09:31:00.871Z,16.97
2019-02-24T09:33:32.171Z,16.77
2019-02-24T09:36:11.051Z,16.87
2019-02-24T09:38:45.615Z,15.38
2019-02-24T09:41:19.899Z,16.37
2019-02-24T09:43:54.150Z,16.67
2019-02-24T09:46:28.367Z,14.18
2019-02-24T09:49:02.866Z,15.45
2019-02-24T09:51:37.098Z,15.80
2019-02-24T09:54:11.278Z,15.50
2019-02-24T09:56:45.529Z,16.50
2019-02-24T09:59:19.744Z,13.55
2019-02-24T10:01:55.967Z,16.62
2019-02-24T10:04:30.252Z,15.83
2019-02-24T10:07:09.500Z,14.55
2019-02-24T10:09:43.734Z,15.95
2019-02-24T10:12:17.749Z,17.07
2019-02-24T10:14:51.738Z,16.17
2019-02-24T10:17:25.645Z,14.87
2019-02-24T10:20:02.688Z,16.77
2019-02-24T10:22:36.684Z,18.20
2019-02-24T10:25:10.743Z,15.47
2019-02-24T10:27:50.815Z,17.90
2019-02-24T10:30:24.795Z,17.20
2019-02-24T10:33:02.064Z,15.97
2019-02-24T10:35:36.039Z,15.97
2019-02-24T10:38:10.096Z,16.20
2019-02-24T10:40:48.020Z,19.12
2019-02-24T10:43:22.278Z,16.87
2019-02-24T10:45:56.577Z,16.60
2019-02-24T10:48:30.767Z,15.50
2019-02-24T10:51:05.056Z,17.62
2019-02-24T10:53:39.349Z,14.68
2019-02-24T10:56:13.678Z,18.20
2019-02-24T10:58:47.900Z,16.45
2019-02-24T11:01:29.237Z,14.98
2019-02-24T11:03:58.184Z,17.67
2019-02-24T11:06:32.460Z,17.35
2019-02-24T11:09:12.583Z,15.33
2019-02-24T11:11:46.471Z,16.20
2019-02-24T11:14:22.479Z,17.30
2019-02-24T11:16:56.391Z,15.83
2019-02-24T11:19:30.501Z,14.57
2019-02-24T11:22:04.775Z,15.80
2019-02-24T11:24:39.098Z,15.80
2019-02-24T11:27:16.120Z,17.13
2019-02-24T11:29:53.089Z,17.63
2019-02-24T11:32:27.346Z,17.17
2019-02-24T11:35:01.562Z,17.17
2019-02-24T11:37:36.737Z,16.45
2019-02-24T11:40:14.028Z,15.68
2019-02-24T11:42:57.795Z,16.48
2019-02-24T11:45:32.165Z,16.50
2019-02-24T11:48:06.513Z,15.23
2019-02-24T11:50:55.919Z,16.07
2019-02-24T11:53:30.119Z,16.77
2019-02-24T11:56:04.485Z,15.95
2019-02-24T11:58:38.702Z,18.00
2019-02-24T12:01:12.968Z,17.12
2019-02-24T12:03:51.898Z,16.97
2019-02-24T12:06:26.206Z,16.77
2019-02-24T12:09:05.214Z,16.57
2019-02-24T12:11:38.534Z,17.42
2019-02-24T12:14:12.765Z,18.65
2019-02-24T12:16:46.940Z,17.73
2019-02-24T12:19:23.220Z,18.45
2019-02-24T12:21:57.517Z,17.32
2019-02-24T12:24:41.017Z,17.42
2019-02-24T12:27:15.189Z,19.35
2019-02-24T12:29:49.849Z,19.42
2019-02-24T12:32:24.050Z,20.55
2019-02-24T12:34:58.267Z,21.27
2019-02-24T12:37:32.467Z,18.60
2019-02-24T12:40:09.999Z,19.70
2019-02-24T12:42:44.265Z,17.82
2019-02-24T12:45:18.487Z,19.98
2019-02-24T12:47:52.681Z,19.52
2019-02-24T12:50:41.288Z,19.40
2019-02-24T12:53:15.503Z,19.32
2019-02-24T12:55:49.788Z,20.85
2019-02-24T12:58:27.760Z,18.10
2019-02-24T13:01:02.550Z,20.48
2019-02-24T13:03:36.811Z,21.73
2019-02-24T13:06:11.154Z,22.75
2019-02-24T13:08:45.373Z,21.05
2019-02-24T13:11:19.627Z,21.45
2019-02-24T13:13:54.145Z,21.12
2019-02-24T13:16:28.399Z,19.67
2019-02-24T13:19:03.745Z,20.20
2019-02-24T13:21:37.925Z,20.23
2019-02-24T13:24:12.151Z,20.57
2019-02-24T13:26:46.412Z,22.87
2019-02-24T13:29:24.500Z,20.95
2019-02-24T13:32:15.079Z,19.23
2019-02-24T13:34:48.741Z,22.62
2019-02-24T13:37:22.943Z,21.65
2019-02-24T13:39:57.226Z,20.35
2019-02-24T13:42:31.496Z,19.27
2019-02-24T13:45:08.800Z,20.27
2019-02-24T13:47:43.151Z,22.05
2019-02-24T13:50:17.408Z,22.07
2019-02-24T13:52:51.648Z,19.50
2019-02-24T13:55:25.914Z,20.75
2019-02-24T13:58:03.376Z,20.37
2019-02-24T14:00:37.636Z,19.00
2019-02-24T14:03:11.865Z,19.00
2019-02-24T14:05:52.071Z,14.45
2019-02-24T14:08:27.708Z,11.57
2019-02-24T14:11:05.135Z,14.93
2019-02-24T14:13:39.375Z,12.95
2019-02-24T14:16:19.860Z,13.08
2019-02-24T14:18:54.164Z,15.78
2019-02-24T14:21:28.359Z,15.35
2019-02-24T14:24:05.569Z,17.98
2019-02-24T14:26:39.858Z,24.12
2019-02-24T14:29:14.083Z,17.35
2019-02-24T14:31:48.373Z,16.37
2019-02-24T14:34:22.591Z,16.27
2019-02-24T14:36:57.170Z,17.37
2019-02-24T14:39:31.408Z,18.30
2019-02-24T14:42:05.602Z,18.37
2019-02-24T14:44:39.879Z,19.27
2019-02-24T14:47:20.223Z,22.77
2019-02-24T14:49:54.431Z,19.90
2019-02-24T14:52:29.604Z,20.30
2019-02-24T14:55:04.852Z,19.20
2019-02-24T14:57:51.060Z,17.90
2019-02-24T15:00:25.442Z,20.23
2019-02-24T15:03:00.015Z,18.80
2019-02-24T15:05:34.235Z,20.55
2019-02-24T15:08:09.557Z,19.77
2019-02-24T15:10:43.811Z,17.10
2019-02-24T15:13:18.095Z,20.35
2019-02-24T15:15:52.361Z,22.00
2019-02-24T15:18:29.605Z,17.92
2019-02-24T15:21:03.937Z,21.07
2019-02-24T15:23:37.635Z,19.77
2019-02-24T15:26:12.232Z,21.90
2019-02-24T15:28:45.956Z,18.83
2019-02-24T15:31:19.619Z,15.32
2019-02-24T15:33:53.312Z,15.03
2019-02-24T15:36:28.490Z,16.87
2019-02-24T15:39:02.837Z,18.23
2019-02-24T15:41:36.450Z,18.00
2019-02-24T15:44:25.987Z,18.60
2019-02-24T15:47:00.244Z,20.05
2019-02-24T15:49:49.072Z,17.80
2019-02-24T15:52:22.654Z,22.37
2019-02-24T15:54:59.515Z,21.67
2019-02-24T15:57:33.198Z,22.73
2019-02-24T16:00:10.436Z,21.93
2019-02-24T16:02:44.190Z,19.60
2019-02-24T16:05:17.848Z,19.93
2019-02-24T16:07:51.540Z,20.53
2019-02-24T16:10:25.474Z,21.00
2019-02-24T16:12:59.163Z,21.30
2019-02-24T16:15:33.275Z,21.17
2019-02-24T16:18:08.887Z,21.53
2019-02-24T16:20:42.480Z,20.50
2019-02-24T16:23:16.082Z,21.63
2019-02-24T16:25:49.725Z,22.83
2019-02-24T16:28:23.481Z,27.17
2019-02-24T16:31:00.252Z,25.43
2019-02-24T16:33:37.560Z,23.63
2019-02-24T16:36:11.196Z,23.37
2019-02-24T16:38:45.154Z,22.90
2019-02-24T16:41:18.847Z,21.00
2019-02-24T16:43:52.542Z,23.10
2019-02-24T16:46:26.221Z,23.37
2019-02-24T16:48:59.822Z,24.17
2019-02-24T16:51:54.565Z,22.70
2019-02-24T16:54:28.230Z,25.37
2019-02-24T16:57:13.891Z,28.33
2019-02-24T16:59:47.541Z,24.93
2019-02-24T17:02:23.031Z,32.33
2019-02-24T17:04:56.558Z,30.43
2019-02-24T17:07:30.263Z,30.03
2019-02-24T17:10:23.816Z,27.27
2019-02-24T17:12:57.741Z,30.00
2019-02-24T17:15:31.369Z,33.23
2019-02-24T17:18:20.028Z,29.83
2019-02-24T17:20:55.102Z,29.50
2019-02-24T17:23:30.383Z,29.63
2019-02-24T17:26:04.114Z,28.10
2019-02-24T17:28:37.725Z,27.60
2019-02-24T17:31:14.590Z,25.23
2019-02-24T17:33:48.195Z,25.53
2019-02-24T17:36:21.876Z,27.17
2019-02-24T17:38:55.517Z,24.43
2019-02-24T17:41:29.342Z,25.67
2019-02-24T17:44:21.726Z,21.50
2019-02-24T17:46:55.350Z,26.97
2019-02-24T17:49:30.586Z,23.73
2019-02-24T17:52:04.367Z,29.40
2019-02-24T17:54:48.010Z,29.07
2019-02-24T17:57:21.698Z,25.10
2019-02-24T17:59:59.837Z,25.63
2019-02-24T18:02:33.475Z,28.83
2019-02-24T18:05:07.803Z,25.70
2019-02-24T18:07:41.466Z,26.93
2019-02-24T18:10:15.349Z,30.93
2019-02-24T18:12:49.077Z,24.87
2019-02-24T18:15:32.165Z,27.43
2019-02-24T18:18:05.759Z,27.03
2019-02-24T18:20:48.426Z,26.37
2019-02-24T18:23:22.153Z,27.23
2019-02-24T18:26:02.885Z,24.77
2019-02-24T18:28:36.637Z,25.73
2019-02-24T18:31:37.993Z,26.27
2019-02-24T18:34:11.580Z,27.43
2019-02-24T18:36:45.273Z,59.47
2019-02-24T18:39:22.092Z,31.57
2019-02-24T18:41:55.693Z,32.30
2019-02-24T18:44:32.818Z,29.93
2019-02-24T18:47:06.551Z,31.57
2019-02-24T18:49:47.297Z,27.80
2019-02-24T18:52:21.078Z,33.47
2019-02-24T18:54:56.697Z,33.70
2019-02-24T18:57:30.234Z,34.30
2019-02-24T19:00:32.669Z,26.47
2019-02-24T19:03:06.495Z,26.00
2019-02-24T19:05:40.157Z,27.63
2019-02-24T19:08:15.284Z,30.03
2019-02-24T19:11:03.100Z,31.00
2019-02-24T19:13:36.692Z,29.60
2019-02-24T19:16:10.393Z,33.33
2019-02-24T19:18:44.792Z,28.70
2019-02-24T19:21:21.581Z,36.03
2019-02-24T19:23:55.239Z,30.73
2019-02-24T19:26:28.998Z,32.97
2019-02-24T19:29:05.098Z,29.93
2019-02-24T19:31:38.719Z,30.83
2019-02-24T19:34:43.096Z,31.80
2019-02-24T19:37:32.588Z,27.03
2019-02-24T19:40:11.744Z,26.50
2019-02-24T19:42:45.398Z,29.87
2019-02-24T19:45:26.144Z,29.47
2019-02-24T19:47:59.779Z,30.20
2019-02-24T19:50:36.810Z,31.53
2019-02-24T19:53:10.474Z,28.10
2019-02-24T19:55:44.096Z,29.50
2019-02-24T19:58:19.709Z,28.23
2019-02-24T20:00:55.079Z,26.07
2019-02-24T20:03:34.274Z,29.23
2019-02-24T20:06:07.961Z,27.00
2019-02-24T20:08:41.612Z,27.90
2019-02-24T20:11:27.242Z,27.93
2019-02-24T20:14:01.357Z,35.20
2019-02-24T20:16:38.466Z,30.27
2019-02-24T20:19:12.081Z,31.17
2019-02-24T20:21:54.803Z,28.93
2019-02-24T20:24:32.990Z,26.67
2019-02-24T20:27:03.795Z,29.77
2019-02-24T20:29:37.449Z,31.03
2019-02-24T20:32:16.151Z,30.40
2019-02-24T20:34:49.744Z,31.83
2019-02-24T20:37:30.778Z,32.00
2019-02-24T20:40:06.601Z,33.60
2019-02-24T20:42:40.301Z,34.03
2019-02-24T20:45:19.487Z,32.37
2019-02-24T20:47:53.253Z,39.13
2019-02-24T20:50:29.118Z,33.60
2019-02-24T20:53:02.940Z,32.80
2019-02-24T20:55:36.581Z,38.70
2019-02-24T20:58:10.340Z,34.10
2019-02-24T21:00:54.281Z,32.03
2019-02-24T21:03:28.283Z,30.30
2019-02-24T21:06:01.934Z,31.00
2019-02-24T21:08:35.604Z,30.07
2019-02-24T21:11:09.224Z,30.67
2019-02-24T21:13:47.495Z,30.83
2019-02-24T21:16:21.113Z,40.77
2019-02-24T21:18:54.713Z,37.87
2019-02-24T21:21:40.535Z,36.80
2019-02-24T21:24:14.165Z,35.00
2019-02-24T21:26:47.788Z,34.87
2019-02-24T21:29:21.376Z,34.20
2019-02-24T21:31:55.071Z,30.93
2019-02-24T21:34:29.012Z,33.57
2019-02-24T21:37:02.638Z,34.80
2019-02-24T21:39:48.291Z,33.27
2019-02-24T21:42:21.921Z,34.10
2019-02-24T21:44:55.519Z,36.60
2019-02-24T21:47:32.478Z,40.80
2019-02-24T21:50:09.311Z,43.33
2019-02-24T21:52:43.071Z,39.43
2019-02-24T21:55:19.882Z,43.33
2019-02-24T21:57:53.514Z,39.33
2019-02-24T22:00:27.578Z,45.83
2019-02-24T22:03:01.169Z,46.63
2019-02-24T22:05:35.515Z,46.43
2019-02-24T22:08:10.156Z,42.43
2019-02-24T22:10:43.905Z,42.27
2019-02-24T22:13:17.558Z,39.00
2019-02-24T22:16:09.983Z,42.77
2019-02-24T22:18:43.576Z,39.87
2019-02-24T22:21:17.203Z,41.80
2019-02-24T22:23:50.825Z,48.03
2019-02-24T22:26:24.451Z,39.60
2019-02-24T22:28:58.143Z,41.33
2019-02-24T22:31:31.909Z,34.60
2019-02-24T22:34:05.542Z,35.63
2019-02-24T22:36:39.420Z,40.80
2019-02-24T22:39:13.062Z,35.47
2019-02-24T22:41:46.722Z,38.03
2019-02-24T22:44:20.354Z,38.70
2019-02-24T22:46:53.966Z,37.37
2019-02-24T22:49:27.586Z,36.27
2019-02-24T22:52:01.188Z,37.97
2019-02-24T22:54:34.816Z,37.07
2019-02-24T22:57:11.442Z,37.20
2019-02-24T22:59:45.055Z,35.97
2019-02-24T23:02:20.085Z,34.83
2019-02-24T23:04:53.716Z,34.97
2019-02-24T23:07:27.461Z,37.27
2019-02-24T23:10:19.896Z,36.87
2019-02-24T23:12:53.516Z,39.10
2019-02-24T23:15:27.193Z,35.70
2019-02-24T23:18:12.897Z,35.50
2019-02-24T23:20:46.567Z,36.37
2019-02-24T23:23:20.200Z,41.10
2019-02-24T23:26:03.205Z,44.20
2019-02-24T23:28:36.824Z,44.73
2019-02-24T23:31:10.417Z,40.43
2019-02-24T23:33:44.110Z,40.13
2019-02-24T23:36:17.840Z,35.17
2019-02-24T23:38:51.618Z,34.27
2019-02-24T23:41:25.277Z,33.73
2019-02-24T23:44:08.173Z,36.10
2019-02-24T23:46:41.857Z,40.90
2019-02-24T23:49:15.811Z,33.97
2019-02-24T23:51:49.458Z,32.50
2019-02-24T23:54:23.228Z,33.27
2019-02-24T23:56:56.878Z,37.47
2019-02-24T23:59:30.548Z,36.17
